sensor_id;sensor_type;location;lat;lon;timestamp;P1;durP1;ratioP1;P2;durP2;ratioP2
20423;SDS011;10371;49.042;8.002;2023-07-20T00:00:19;2.17;;;1.98;;
20423;SDS011;10371;49.042;8.002;2023-07-20T00:01:20;2.13;;;1.92;;
20423;SDS011;10371;49.042;8.002;2023-07-20T00:02:20;3.38;;;1.80;;
20423;SDS011;10371;49.042;8.002;2023-07-20T00:03:20;1.60;;;1.50;;
20423;SDS011;10371;49.042;8.002;2023-07-20T00:04:25;2.00;;;1.70;;
20423;SDS011;10371;49.042;8.002;2023-07-20T00:05:25;1.92;;;1.60;;
20423;SDS011;10371;49.042;8.002;2023-07-20T00:06:25;2.53;;;1.70;;
20423;SDS011;10371;49.042;8.002;2023-07-20T00:07:27;1.95;;;1.70;;
20423;SDS011;10371;49.042;8.002;2023-07-20T00:08:28;2.28;;;1.98;;
20423;SDS011;10371;49.042;8.002;2023-07-20T00:09:28;2.75;;;1.85;;
20423;SDS011;10371;49.042;8.002;2023-07-20T00:10:29;1.77;;;1.67;;
20423;SDS011;10371;49.042;8.002;2023-07-20T00:11:29;2.05;;;1.85;;
20423;SDS011;10371;49.042;8.002;2023-07-20T00:12:29;2.10;;;1.90;;
20423;SDS011;10371;49.042;8.002;2023-07-20T00:13:30;1.80;;;1.70;;
20423;SDS011;10371;49.042;8.002;2023-07-20T00:14:30;1.88;;;1.67;;
20423;SDS011;10371;49.042;8.002;2023-07-20T00:15:31;2.47;;;1.80;;
20423;SDS011;10371;49.042;8.002;2023-07-20T00:16:32;1.80;;;1.70;;
20423;SDS011;10371;49.042;8.002;2023-07-20T00:17:32;2.13;;;1.80;;
20423;SDS011;10371;49.042;8.002;2023-07-20T00:18:33;2.08;;;1.88;;
20423;SDS011;10371;49.042;8.002;2023-07-20T00:19:33;2.42;;;2.05;;
20423;SDS011;10371;49.042;8.002;2023-07-20T00:20:35;2.20;;;2.00;;
20423;SDS011;10371;49.042;8.002;2023-07-20T00:21:35;2.47;;;2.00;;
20423;SDS011;10371;49.042;8.002;2023-07-20T00:22:35;3.03;;;1.73;;
20423;SDS011;10371;49.042;8.002;2023-07-20T00:23:35;1.90;;;1.80;;
20423;SDS011;10371;49.042;8.002;2023-07-20T00:24:36;2.10;;;1.90;;
20423;SDS011;10371;49.042;8.002;2023-07-20T00:25:36;2.38;;;2.10;;
20423;SDS011;10371;49.042;8.002;2023-07-20T00:26:36;1.98;;;1.88;;
20423;SDS011;10371;49.042;8.002;2023-07-20T00:27:37;1.85;;;1.75;;
20423;SDS011;10371;49.042;8.002;2023-07-20T00:28:37;2.80;;;2.00;;
20423;SDS011;10371;49.042;8.002;2023-07-20T00:29:38;2.33;;;1.90;;
20423;SDS011;10371;49.042;8.002;2023-07-20T00:30:39;1.67;;;1.58;;
20423;SDS011;10371;49.042;8.002;2023-07-20T00:31:40;2.00;;;1.67;;
20423;SDS011;10371;49.042;8.002;2023-07-20T00:32:41;1.90;;;1.80;;
20423;SDS011;10371;49.042;8.002;2023-07-20T00:33:42;2.40;;;2.15;;
20423;SDS011;10371;49.042;8.002;2023-07-20T00:34:42;1.88;;;1.70;;
20423;SDS011;10371;49.042;8.002;2023-07-20T00:35:42;1.73;;;1.63;;
20423;SDS011;10371;49.042;8.002;2023-07-20T00:36:43;3.60;;;1.70;;
20423;SDS011;10371;49.042;8.002;2023-07-20T00:37:43;1.70;;;1.60;;
20423;SDS011;10371;49.042;8.002;2023-07-20T00:38:43;2.10;;;1.60;;
20423;SDS011;10371;49.042;8.002;2023-07-20T00:39:44;2.05;;;1.88;;
20423;SDS011;10371;49.042;8.002;2023-07-20T00:40:44;1.67;;;1.58;;
20423;SDS011;10371;49.042;8.002;2023-07-20T00:41:44;2.70;;;1.85;;
20423;SDS011;10371;49.042;8.002;2023-07-20T00:42:45;2.00;;;1.80;;
20423;SDS011;10371;49.042;8.002;2023-07-20T00:43:45;1.88;;;1.77;;
20423;SDS011;10371;49.042;8.002;2023-07-20T00:44:45;4.13;;;2.00;;
20423;SDS011;10371;49.042;8.002;2023-07-20T00:45:45;2.05;;;1.77;;
20423;SDS011;10371;49.042;8.002;2023-07-20T00:46:47;1.95;;;1.80;;
20423;SDS011;10371;49.042;8.002;2023-07-20T00:47:48;2.38;;;1.90;;
20423;SDS011;10371;49.042;8.002;2023-07-20T00:48:48;2.10;;;1.80;;
20423;SDS011;10371;49.042;8.002;2023-07-20T00:49:48;2.17;;;1.92;;
20423;SDS011;10371;49.042;8.002;2023-07-20T00:50:51;2.55;;;1.90;;
20423;SDS011;10371;49.042;8.002;2023-07-20T00:51:51;2.30;;;2.10;;
20423;SDS011;10371;49.042;8.002;2023-07-20T00:52:51;2.03;;;1.75;;
20423;SDS011;10371;49.042;8.002;2023-07-20T00:53:52;3.78;;;2.10;;
20423;SDS011;10371;49.042;8.002;2023-07-20T00:54:53;3.15;;;1.88;;
20423;SDS011;10371;49.042;8.002;2023-07-20T00:55:56;2.00;;;1.90;;
20423;SDS011;10371;49.042;8.002;2023-07-20T00:56:56;1.95;;;1.83;;
20423;SDS011;10371;49.042;8.002;2023-07-20T00:57:58;2.95;;;2.00;;
20423;SDS011;10371;49.042;8.002;2023-07-20T00:58:59;1.80;;;1.70;;
20423;SDS011;10371;49.042;8.002;2023-07-20T01:00:00;2.05;;;1.92;;
20423;SDS011;10371;49.042;8.002;2023-07-20T01:01:00;2.03;;;1.83;;
20423;SDS011;10371;49.042;8.002;2023-07-20T01:02:00;2.38;;;1.90;;
20423;SDS011;10371;49.042;8.002;2023-07-20T01:03:01;1.90;;;1.80;;
20423;SDS011;10371;49.042;8.002;2023-07-20T01:04:01;2.20;;;2.00;;
20423;SDS011;10371;49.042;8.002;2023-07-20T01:05:02;1.90;;;1.80;;
20423;SDS011;10371;49.042;8.002;2023-07-20T01:07:11;1.88;;;1.65;;
20423;SDS011;10371;49.042;8.002;2023-07-20T01:08:15;3.03;;;2.00;;
20423;SDS011;10371;49.042;8.002;2023-07-20T01:09:34;2.10;;;1.90;;
20423;SDS011;10371;49.042;8.002;2023-07-20T01:10:53;1.65;;;1.55;;
20423;SDS011;10371;49.042;8.002;2023-07-20T01:12:06;2.13;;;1.92;;
20423;SDS011;10371;49.042;8.002;2023-07-20T01:13:10;1.90;;;1.75;;
20423;SDS011;10371;49.042;8.002;2023-07-20T01:14:11;2.10;;;1.90;;
20423;SDS011;10371;49.042;8.002;2023-07-20T01:15:12;2.22;;;2.03;;
20423;SDS011;10371;49.042;8.002;2023-07-20T01:16:12;3.65;;;2.20;;
20423;SDS011;10371;49.042;8.002;2023-07-20T01:17:13;2.65;;;2.25;;
20423;SDS011;10371;49.042;8.002;2023-07-20T01:18:13;2.25;;;2.03;;
20423;SDS011;10371;49.042;8.002;2023-07-20T01:19:14;3.20;;;2.20;;
20423;SDS011;10371;49.042;8.002;2023-07-20T01:20:15;2.80;;;2.03;;
20423;SDS011;10371;49.042;8.002;2023-07-20T01:21:30;2.15;;;1.98;;
20423;SDS011;10371;49.042;8.002;2023-07-20T01:25:30;2.17;;;1.98;;
20423;SDS011;10371;49.042;8.002;2023-07-20T01:26:57;2.47;;;2.00;;
20423;SDS011;10371;49.042;8.002;2023-07-20T01:32:31;2.20;;;1.88;;
20423;SDS011;10371;49.042;8.002;2023-07-20T01:33:33;2.05;;;1.85;;
20423;SDS011;10371;49.042;8.002;2023-07-20T01:34:34;1.85;;;1.75;;
20423;SDS011;10371;49.042;8.002;2023-07-20T01:35:36;2.60;;;1.90;;
20423;SDS011;10371;49.042;8.002;2023-07-20T01:36:38;2.90;;;1.95;;
20423;SDS011;10371;49.042;8.002;2023-07-20T01:37:40;1.80;;;1.70;;
20423;SDS011;10371;49.042;8.002;2023-07-20T01:38:43;2.13;;;1.92;;
20423;SDS011;10371;49.042;8.002;2023-07-20T01:39:44;2.72;;;1.90;;
20423;SDS011;10371;49.042;8.002;2023-07-20T01:40:44;2.22;;;2.03;;
20423;SDS011;10371;49.042;8.002;2023-07-20T01:41:45;2.50;;;2.00;;
20423;SDS011;10371;49.042;8.002;2023-07-20T01:42:46;2.17;;;2.00;;
20423;SDS011;10371;49.042;8.002;2023-07-20T01:43:47;2.20;;;1.70;;
20423;SDS011;10371;49.042;8.002;2023-07-20T01:44:47;3.55;;;2.10;;
20423;SDS011;10371;49.042;8.002;2023-07-20T01:45:50;2.10;;;1.90;;
20423;SDS011;10371;49.042;8.002;2023-07-20T01:46:50;2.03;;;1.85;;
20423;SDS011;10371;49.042;8.002;2023-07-20T01:47:50;2.72;;;2.05;;
20423;SDS011;10371;49.042;8.002;2023-07-20T01:48:51;2.15;;;1.95;;
20423;SDS011;10371;49.042;8.002;2023-07-20T01:49:52;2.30;;;2.10;;
20423;SDS011;10371;49.042;8.002;2023-07-20T01:50:52;2.17;;;1.98;;
20423;SDS011;10371;49.042;8.002;2023-07-20T01:51:52;2.25;;;2.05;;
20423;SDS011;10371;49.042;8.002;2023-07-20T01:52:52;3.05;;;2.03;;
20423;SDS011;10371;49.042;8.002;2023-07-20T01:53:53;2.65;;;1.98;;
20423;SDS011;10371;49.042;8.002;2023-07-20T01:54:53;2.67;;;1.98;;
20423;SDS011;10371;49.042;8.002;2023-07-20T01:55:53;2.30;;;2.10;;
20423;SDS011;10371;49.042;8.002;2023-07-20T01:56:54;2.30;;;2.10;;
20423;SDS011;10371;49.042;8.002;2023-07-20T01:57:55;2.35;;;1.90;;
20423;SDS011;10371;49.042;8.002;2023-07-20T01:58:55;2.15;;;1.98;;
20423;SDS011;10371;49.042;8.002;2023-07-20T01:59:55;2.70;;;2.10;;
20423;SDS011;10371;49.042;8.002;2023-07-20T02:00:56;2.63;;;2.00;;
20423;SDS011;10371;49.042;8.002;2023-07-20T02:01:56;2.22;;;1.80;;
20423;SDS011;10371;49.042;8.002;2023-07-20T02:02:56;2.22;;;2.00;;
20423;SDS011;10371;49.042;8.002;2023-07-20T02:03:57;2.47;;;2.00;;
20423;SDS011;10371;49.042;8.002;2023-07-20T02:04:57;2.20;;;2.00;;
20423;SDS011;10371;49.042;8.002;2023-07-20T02:05:58;3.33;;;1.95;;
20423;SDS011;10371;49.042;8.002;2023-07-20T02:06:58;2.83;;;2.30;;
20423;SDS011;10371;49.042;8.002;2023-07-20T02:07:59;2.53;;;2.10;;
20423;SDS011;10371;49.042;8.002;2023-07-20T02:08:59;1.80;;;1.70;;
20423;SDS011;10371;49.042;8.002;2023-07-20T02:10:00;2.30;;;2.00;;
20423;SDS011;10371;49.042;8.002;2023-07-20T02:11:00;3.00;;;2.20;;
20423;SDS011;10371;49.042;8.002;2023-07-20T02:12:00;2.30;;;2.10;;
20423;SDS011;10371;49.042;8.002;2023-07-20T02:13:00;2.58;;;1.75;;
20423;SDS011;10371;49.042;8.002;2023-07-20T02:14:01;2.53;;;2.22;;
20423;SDS011;10371;49.042;8.002;2023-07-20T02:15:02;2.47;;;2.00;;
20423;SDS011;10371;49.042;8.002;2023-07-20T02:16:02;2.50;;;2.00;;
20423;SDS011;10371;49.042;8.002;2023-07-20T02:17:03;2.35;;;2.00;;
20423;SDS011;10371;49.042;8.002;2023-07-20T02:18:04;2.58;;;1.98;;
20423;SDS011;10371;49.042;8.002;2023-07-20T02:19:04;2.88;;;2.10;;
20423;SDS011;10371;49.042;8.002;2023-07-20T02:20:07;3.03;;;2.17;;
20423;SDS011;10371;49.042;8.002;2023-07-20T02:21:10;2.47;;;2.03;;
20423;SDS011;10371;49.042;8.002;2023-07-20T02:22:11;2.72;;;2.20;;
20423;SDS011;10371;49.042;8.002;2023-07-20T02:23:11;4.15;;;2.30;;
20423;SDS011;10371;49.042;8.002;2023-07-20T02:24:12;2.83;;;1.88;;
20423;SDS011;10371;49.042;8.002;2023-07-20T02:25:13;2.75;;;2.10;;
20423;SDS011;10371;49.042;8.002;2023-07-20T02:26:13;2.38;;;2.00;;
20423;SDS011;10371;49.042;8.002;2023-07-20T02:27:13;4.70;;;2.35;;
20423;SDS011;10371;49.042;8.002;2023-07-20T02:28:13;2.72;;;2.20;;
20423;SDS011;10371;49.042;8.002;2023-07-20T02:29:14;2.30;;;2.10;;
20423;SDS011;10371;49.042;8.002;2023-07-20T02:30:14;3.17;;;2.42;;
20423;SDS011;10371;49.042;8.002;2023-07-20T02:31:16;2.13;;;1.83;;
20423;SDS011;10371;49.042;8.002;2023-07-20T02:32:16;3.35;;;2.28;;
20423;SDS011;10371;49.042;8.002;2023-07-20T02:33:16;2.30;;;2.10;;
20423;SDS011;10371;49.042;8.002;2023-07-20T02:34:16;2.22;;;2.03;;
20423;SDS011;10371;49.042;8.002;2023-07-20T02:35:17;2.92;;;2.00;;
20423;SDS011;10371;49.042;8.002;2023-07-20T02:36:17;2.50;;;2.08;;
20423;SDS011;10371;49.042;8.002;2023-07-20T02:37:17;2.03;;;1.83;;
20423;SDS011;10371;49.042;8.002;2023-07-20T02:38:18;2.97;;;2.20;;
20423;SDS011;10371;49.042;8.002;2023-07-20T02:39:18;2.40;;;1.83;;
20423;SDS011;10371;49.042;8.002;2023-07-20T02:40:18;2.22;;;2.00;;
20423;SDS011;10371;49.042;8.002;2023-07-20T02:41:19;2.17;;;1.98;;
20423;SDS011;10371;49.042;8.002;2023-07-20T02:42:19;2.50;;;2.15;;
20423;SDS011;10371;49.042;8.002;2023-07-20T02:43:19;2.20;;;2.00;;
20423;SDS011;10371;49.042;8.002;2023-07-20T02:44:19;2.33;;;1.88;;
20423;SDS011;10371;49.042;8.002;2023-07-20T02:45:20;2.05;;;1.90;;
20423;SDS011;10371;49.042;8.002;2023-07-20T02:46:20;3.65;;;2.50;;
20423;SDS011;10371;49.042;8.002;2023-07-20T02:47:21;2.30;;;2.10;;
20423;SDS011;10371;49.042;8.002;2023-07-20T02:48:21;2.72;;;2.22;;
20423;SDS011;10371;49.042;8.002;2023-07-20T02:49:21;2.20;;;2.00;;
20423;SDS011;10371;49.042;8.002;2023-07-20T02:50:22;3.30;;;2.20;;
20423;SDS011;10371;49.042;8.002;2023-07-20T02:51:22;2.85;;;2.08;;
20423;SDS011;10371;49.042;8.002;2023-07-20T02:52:22;2.65;;;2.05;;
20423;SDS011;10371;49.042;8.002;2023-07-20T02:53:24;3.33;;;2.10;;
20423;SDS011;10371;49.042;8.002;2023-07-20T02:54:24;2.83;;;2.20;;
20423;SDS011;10371;49.042;8.002;2023-07-20T02:55:24;2.95;;;2.03;;
20423;SDS011;10371;49.042;8.002;2023-07-20T02:56:24;3.80;;;2.20;;
20423;SDS011;10371;49.042;8.002;2023-07-20T02:57:25;4.13;;;2.35;;
20423;SDS011;10371;49.042;8.002;2023-07-20T02:58:25;3.08;;;2.30;;
20423;SDS011;10371;49.042;8.002;2023-07-20T02:59:25;2.47;;;2.20;;
20423;SDS011;10371;49.042;8.002;2023-07-20T03:00:26;2.00;;;1.90;;
20423;SDS011;10371;49.042;8.002;2023-07-20T03:01:26;2.70;;;2.00;;
20423;SDS011;10371;49.042;8.002;2023-07-20T03:02:29;2.03;;;1.90;;
20423;SDS011;10371;49.042;8.002;2023-07-20T03:03:30;2.50;;;2.15;;
20423;SDS011;10371;49.042;8.002;2023-07-20T03:04:30;2.25;;;2.10;;
20423;SDS011;10371;49.042;8.002;2023-07-20T03:05:30;2.38;;;2.17;;
20423;SDS011;10371;49.042;8.002;2023-07-20T03:06:31;3.58;;;1.98;;
20423;SDS011;10371;49.042;8.002;2023-07-20T03:07:31;1.90;;;1.80;;
20423;SDS011;10371;49.042;8.002;2023-07-20T03:08:31;3.53;;;2.08;;
20423;SDS011;10371;49.042;8.002;2023-07-20T03:09:32;2.20;;;2.00;;
20423;SDS011;10371;49.042;8.002;2023-07-20T03:10:32;2.35;;;1.85;;
20423;SDS011;10371;49.042;8.002;2023-07-20T03:11:32;2.88;;;2.40;;
20423;SDS011;10371;49.042;8.002;2023-07-20T03:12:34;3.75;;;2.22;;
20423;SDS011;10371;49.042;8.002;2023-07-20T03:13:34;2.40;;;2.20;;
20423;SDS011;10371;49.042;8.002;2023-07-20T03:14:34;3.78;;;2.20;;
20423;SDS011;10371;49.042;8.002;2023-07-20T03:15:34;2.75;;;2.25;;
20423;SDS011;10371;49.042;8.002;2023-07-20T03:16:35;2.50;;;2.30;;
20423;SDS011;10371;49.042;8.002;2023-07-20T03:17:35;2.05;;;1.85;;
20423;SDS011;10371;49.042;8.002;2023-07-20T03:18:35;2.03;;;1.83;;
20423;SDS011;10371;49.042;8.002;2023-07-20T03:19:35;2.22;;;2.05;;
20423;SDS011;10371;49.042;8.002;2023-07-20T03:20:36;2.10;;;1.90;;
20423;SDS011;10371;49.042;8.002;2023-07-20T03:21:37;3.25;;;2.03;;
20423;SDS011;10371;49.042;8.002;2023-07-20T03:22:40;3.15;;;2.10;;
20423;SDS011;10371;49.042;8.002;2023-07-20T03:23:41;3.13;;;2.25;;
20423;SDS011;10371;49.042;8.002;2023-07-20T03:24:41;2.55;;;2.35;;
20423;SDS011;10371;49.042;8.002;2023-07-20T03:25:41;2.47;;;2.00;;
20423;SDS011;10371;49.042;8.002;2023-07-20T03:26:42;2.10;;;1.90;;
20423;SDS011;10371;49.042;8.002;2023-07-20T03:27:42;2.50;;;2.30;;
20423;SDS011;10371;49.042;8.002;2023-07-20T03:28:42;2.30;;;2.10;;
20423;SDS011;10371;49.042;8.002;2023-07-20T03:29:43;2.20;;;2.10;;
20423;SDS011;10371;49.042;8.002;2023-07-20T03:30:44;2.65;;;2.05;;
20423;SDS011;10371;49.042;8.002;2023-07-20T03:31:44;2.28;;;2.00;;
20423;SDS011;10371;49.042;8.002;2023-07-20T03:32:45;2.53;;;2.25;;
20423;SDS011;10371;49.042;8.002;2023-07-20T03:33:45;2.50;;;2.25;;
20423;SDS011;10371;49.042;8.002;2023-07-20T03:34:45;2.22;;;2.08;;
20423;SDS011;10371;49.042;8.002;2023-07-20T03:35:46;4.03;;;2.45;;
20423;SDS011;10371;49.042;8.002;2023-07-20T03:36:46;2.53;;;2.20;;
20423;SDS011;10371;49.042;8.002;2023-07-20T03:37:47;2.45;;;2.25;;
20423;SDS011;10371;49.042;8.002;2023-07-20T03:38:47;2.33;;;2.13;;
20423;SDS011;10371;49.042;8.002;2023-07-20T03:39:47;2.50;;;2.30;;
20423;SDS011;10371;49.042;8.002;2023-07-20T03:41:57;2.45;;;2.25;;
20423;SDS011;10371;49.042;8.002;2023-07-20T03:42:58;3.75;;;2.45;;
20423;SDS011;10371;49.042;8.002;2023-07-20T03:43:58;2.47;;;2.22;;
20423;SDS011;10371;49.042;8.002;2023-07-20T03:44:58;2.30;;;2.13;;
20423;SDS011;10371;49.042;8.002;2023-07-20T03:45:59;2.85;;;2.60;;
20423;SDS011;10371;49.042;8.002;2023-07-20T03:46:59;2.83;;;2.50;;
20423;SDS011;10371;49.042;8.002;2023-07-20T03:47:59;4.82;;;2.53;;
20423;SDS011;10371;49.042;8.002;2023-07-20T03:49:00;3.88;;;2.53;;
20423;SDS011;10371;49.042;8.002;2023-07-20T03:50:00;3.38;;;2.60;;
20423;SDS011;10371;49.042;8.002;2023-07-20T03:51:00;3.58;;;2.72;;
20423;SDS011;10371;49.042;8.002;2023-07-20T03:52:01;3.10;;;2.47;;
20423;SDS011;10371;49.042;8.002;2023-07-20T03:53:03;5.18;;;2.95;;
20423;SDS011;10371;49.042;8.002;2023-07-20T03:54:03;4.47;;;2.55;;
20423;SDS011;10371;49.042;8.002;2023-07-20T03:55:03;3.13;;;2.80;;
20423;SDS011;10371;49.042;8.002;2023-07-20T03:56:04;3.08;;;2.78;;
20423;SDS011;10371;49.042;8.002;2023-07-20T03:57:04;3.10;;;2.70;;
20423;SDS011;10371;49.042;8.002;2023-07-20T03:58:05;4.53;;;2.50;;
20423;SDS011;10371;49.042;8.002;2023-07-20T03:59:05;3.67;;;2.90;;
20423;SDS011;10371;49.042;8.002;2023-07-20T04:00:06;2.92;;;2.60;;
20423;SDS011;10371;49.042;8.002;2023-07-20T04:01:07;3.42;;;2.45;;
20423;SDS011;10371;49.042;8.002;2023-07-20T04:02:09;2.97;;;2.58;;
20423;SDS011;10371;49.042;8.002;2023-07-20T04:03:09;2.75;;;2.13;;
20423;SDS011;10371;49.042;8.002;2023-07-20T04:04:10;4.43;;;2.42;;
20423;SDS011;10371;49.042;8.002;2023-07-20T04:05:10;4.78;;;2.80;;
20423;SDS011;10371;49.042;8.002;2023-07-20T04:06:10;3.65;;;2.50;;
20423;SDS011;10371;49.042;8.002;2023-07-20T04:07:11;2.30;;;2.10;;
20423;SDS011;10371;49.042;8.002;2023-07-20T04:08:11;3.25;;;2.17;;
20423;SDS011;10371;49.042;8.002;2023-07-20T04:09:12;2.70;;;2.50;;
20423;SDS011;10371;49.042;8.002;2023-07-20T04:10:12;2.40;;;2.20;;
20423;SDS011;10371;49.042;8.002;2023-07-20T04:11:13;2.55;;;2.20;;
20423;SDS011;10371;49.042;8.002;2023-07-20T04:12:13;2.33;;;2.10;;
20423;SDS011;10371;49.042;8.002;2023-07-20T04:13:14;2.60;;;2.38;;
20423;SDS011;10371;49.042;8.002;2023-07-20T04:14:14;3.55;;;2.63;;
20423;SDS011;10371;49.042;8.002;2023-07-20T04:15:14;2.42;;;2.22;;
20423;SDS011;10371;49.042;8.002;2023-07-20T04:16:14;2.53;;;2.33;;
20423;SDS011;10371;49.042;8.002;2023-07-20T04:17:15;3.50;;;2.55;;
20423;SDS011;10371;49.042;8.002;2023-07-20T04:18:15;2.50;;;2.30;;
20423;SDS011;10371;49.042;8.002;2023-07-20T04:19:15;2.78;;;2.47;;
20423;SDS011;10371;49.042;8.002;2023-07-20T04:20:17;4.07;;;2.40;;
20423;SDS011;10371;49.042;8.002;2023-07-20T04:21:18;2.95;;;2.20;;
20423;SDS011;10371;49.042;8.002;2023-07-20T04:22:18;2.83;;;2.50;;
20423;SDS011;10371;49.042;8.002;2023-07-20T04:23:18;2.97;;;2.35;;
20423;SDS011;10371;49.042;8.002;2023-07-20T04:24:18;2.63;;;2.22;;
20423;SDS011;10371;49.042;8.002;2023-07-20T04:25:19;2.65;;;2.45;;
20423;SDS011;10371;49.042;8.002;2023-07-20T04:26:19;4.07;;;2.50;;
20423;SDS011;10371;49.042;8.002;2023-07-20T04:27:19;3.33;;;2.47;;
20423;SDS011;10371;49.042;8.002;2023-07-20T04:28:20;3.33;;;2.97;;
20423;SDS011;10371;49.042;8.002;2023-07-20T04:29:20;3.10;;;2.67;;
20423;SDS011;10371;49.042;8.002;2023-07-20T04:30:21;2.60;;;2.40;;
20423;SDS011;10371;49.042;8.002;2023-07-20T04:31:22;2.65;;;2.42;;
20423;SDS011;10371;49.042;8.002;2023-07-20T04:32:22;4.15;;;2.40;;
20423;SDS011;10371;49.042;8.002;2023-07-20T04:33:23;3.20;;;2.45;;
20423;SDS011;10371;49.042;8.002;2023-07-20T04:34:23;4.10;;;3.08;;
20423;SDS011;10371;49.042;8.002;2023-07-20T04:36:50;2.78;;;2.45;;
20423;SDS011;10371;49.042;8.002;2023-07-20T04:37:50;3.50;;;2.63;;
20423;SDS011;10371;49.042;8.002;2023-07-20T04:38:50;3.10;;;2.33;;
20423;SDS011;10371;49.042;8.002;2023-07-20T04:39:51;2.60;;;2.40;;
20423;SDS011;10371;49.042;8.002;2023-07-20T04:40:51;3.25;;;2.45;;
20423;SDS011;10371;49.042;8.002;2023-07-20T04:41:51;4.38;;;2.67;;
20423;SDS011;10371;49.042;8.002;2023-07-20T04:42:52;2.63;;;2.35;;
20423;SDS011;10371;49.042;8.002;2023-07-20T04:43:52;2.78;;;2.47;;
20423;SDS011;10371;49.042;8.002;2023-07-20T04:44:52;2.42;;;2.13;;
20423;SDS011;10371;49.042;8.002;2023-07-20T04:45:53;3.38;;;2.40;;
20423;SDS011;10371;49.042;8.002;2023-07-20T04:46:53;2.80;;;2.55;;
20423;SDS011;10371;49.042;8.002;2023-07-20T04:47:53;3.13;;;2.78;;
20423;SDS011;10371;49.042;8.002;2023-07-20T04:48:53;3.13;;;2.60;;
20423;SDS011;10371;49.042;8.002;2023-07-20T04:49:54;4.40;;;4.00;;
20423;SDS011;10371;49.042;8.002;2023-07-20T04:50:54;3.13;;;2.83;;
20423;SDS011;10371;49.042;8.002;2023-07-20T04:51:55;3.58;;;2.70;;
20423;SDS011;10371;49.042;8.002;2023-07-20T04:52:56;2.85;;;2.35;;
20423;SDS011;10371;49.042;8.002;2023-07-20T04:53:57;2.63;;;2.38;;
20423;SDS011;10371;49.042;8.002;2023-07-20T04:54:57;3.72;;;2.65;;
20423;SDS011;10371;49.042;8.002;2023-07-20T04:55:57;3.72;;;2.40;;
20423;SDS011;10371;49.042;8.002;2023-07-20T04:56:58;2.40;;;2.20;;
20423;SDS011;10371;49.042;8.002;2023-07-20T04:57:58;3.30;;;2.10;;
20423;SDS011;10371;49.042;8.002;2023-07-20T04:58:59;2.60;;;2.10;;
20423;SDS011;10371;49.042;8.002;2023-07-20T05:00:00;3.58;;;2.35;;
20423;SDS011;10371;49.042;8.002;2023-07-20T05:01:00;3.20;;;2.05;;
20423;SDS011;10371;49.042;8.002;2023-07-20T05:02:00;2.40;;;2.17;;
20423;SDS011;10371;49.042;8.002;2023-07-20T05:03:01;2.40;;;2.20;;
20423;SDS011;10371;49.042;8.002;2023-07-20T05:04:01;2.53;;;2.33;;
20423;SDS011;10371;49.042;8.002;2023-07-20T05:05:02;3.20;;;2.55;;
20423;SDS011;10371;49.042;8.002;2023-07-20T05:06:05;3.85;;;2.50;;
20423;SDS011;10371;49.042;8.002;2023-07-20T05:07:05;3.10;;;2.30;;
20423;SDS011;10371;49.042;8.002;2023-07-20T05:08:06;2.72;;;2.40;;
20423;SDS011;10371;49.042;8.002;2023-07-20T05:09:06;4.40;;;2.58;;
20423;SDS011;10371;49.042;8.002;2023-07-20T05:10:09;2.63;;;2.13;;
20423;SDS011;10371;49.042;8.002;2023-07-20T05:11:10;2.28;;;2.08;;
20423;SDS011;10371;49.042;8.002;2023-07-20T05:12:10;2.83;;;2.45;;
20423;SDS011;10371;49.042;8.002;2023-07-20T05:13:12;2.60;;;2.20;;
20423;SDS011;10371;49.042;8.002;2023-07-20T05:14:12;3.22;;;2.40;;
20423;SDS011;10371;49.042;8.002;2023-07-20T05:15:12;2.97;;;2.40;;
20423;SDS011;10371;49.042;8.002;2023-07-20T05:16:13;2.78;;;2.42;;
20423;SDS011;10371;49.042;8.002;2023-07-20T05:17:13;4.80;;;3.03;;
20423;SDS011;10371;49.042;8.002;2023-07-20T05:18:13;2.33;;;2.13;;
20423;SDS011;10371;49.042;8.002;2023-07-20T05:19:19;2.67;;;2.05;;
20423;SDS011;10371;49.042;8.002;2023-07-20T05:20:19;3.25;;;2.22;;
20423;SDS011;10371;49.042;8.002;2023-07-20T05:21:20;2.50;;;2.13;;
20423;SDS011;10371;49.042;8.002;2023-07-20T05:22:20;2.40;;;2.20;;
20423;SDS011;10371;49.042;8.002;2023-07-20T05:23:21;2.08;;;1.98;;
20423;SDS011;10371;49.042;8.002;2023-07-20T05:24:21;2.50;;;2.20;;
20423;SDS011;10371;49.042;8.002;2023-07-20T05:25:22;3.92;;;1.98;;
20423;SDS011;10371;49.042;8.002;2023-07-20T05:26:22;2.28;;;2.03;;
20423;SDS011;10371;49.042;8.002;2023-07-20T05:27:22;2.20;;;1.92;;
20423;SDS011;10371;49.042;8.002;2023-07-20T05:28:23;2.35;;;2.13;;
20423;SDS011;10371;49.042;8.002;2023-07-20T05:29:24;3.33;;;1.98;;
20423;SDS011;10371;49.042;8.002;2023-07-20T05:30:25;2.05;;;1.90;;
20423;SDS011;10371;49.042;8.002;2023-07-20T05:31:25;2.25;;;2.00;;
20423;SDS011;10371;49.042;8.002;2023-07-20T05:32:26;2.60;;;2.22;;
20423;SDS011;10371;49.042;8.002;2023-07-20T05:33:26;2.10;;;1.90;;
20423;SDS011;10371;49.042;8.002;2023-07-20T05:34:26;3.22;;;2.30;;
20423;SDS011;10371;49.042;8.002;2023-07-20T05:35:27;2.78;;;2.00;;
20423;SDS011;10371;49.042;8.002;2023-07-20T05:36:27;3.38;;;1.98;;
20423;SDS011;10371;49.042;8.002;2023-07-20T05:37:27;2.67;;;2.42;;
20423;SDS011;10371;49.042;8.002;2023-07-20T05:38:28;2.88;;;2.30;;
20423;SDS011;10371;49.042;8.002;2023-07-20T05:39:28;3.22;;;2.30;;
20423;SDS011;10371;49.042;8.002;2023-07-20T05:40:28;4.57;;;2.58;;
20423;SDS011;10371;49.042;8.002;2023-07-20T05:41:29;2.63;;;2.30;;
20423;SDS011;10371;49.042;8.002;2023-07-20T05:42:29;2.33;;;2.10;;
20423;SDS011;10371;49.042;8.002;2023-07-20T05:43:29;3.85;;;2.25;;
20423;SDS011;10371;49.042;8.002;2023-07-20T05:44:30;6.75;;;2.38;;
20423;SDS011;10371;49.042;8.002;2023-07-20T05:45:30;2.40;;;2.08;;
20423;SDS011;10371;49.042;8.002;2023-07-20T05:46:30;4.60;;;2.35;;
20423;SDS011;10371;49.042;8.002;2023-07-20T05:47:31;3.40;;;2.10;;
20423;SDS011;10371;49.042;8.002;2023-07-20T05:48:32;3.00;;;2.35;;
20423;SDS011;10371;49.042;8.002;2023-07-20T05:49:32;2.10;;;1.92;;
20423;SDS011;10371;49.042;8.002;2023-07-20T05:50:34;3.63;;;2.05;;
20423;SDS011;10371;49.042;8.002;2023-07-20T05:51:34;2.30;;;2.10;;
20423;SDS011;10371;49.042;8.002;2023-07-20T05:52:35;3.40;;;2.20;;
20423;SDS011;10371;49.042;8.002;2023-07-20T05:53:35;3.63;;;2.10;;
20423;SDS011;10371;49.042;8.002;2023-07-20T05:54:35;2.55;;;2.10;;
20423;SDS011;10371;49.042;8.002;2023-07-20T05:55:36;3.63;;;2.30;;
20423;SDS011;10371;49.042;8.002;2023-07-20T05:56:36;2.17;;;1.98;;
20423;SDS011;10371;49.042;8.002;2023-07-20T05:57:36;3.20;;;2.08;;
20423;SDS011;10371;49.042;8.002;2023-07-20T05:58:39;2.30;;;2.10;;
20423;SDS011;10371;49.042;8.002;2023-07-20T05:59:39;5.05;;;2.42;;
20423;SDS011;10371;49.042;8.002;2023-07-20T06:00:43;2.03;;;1.85;;
20423;SDS011;10371;49.042;8.002;2023-07-20T06:01:44;2.63;;;2.05;;
20423;SDS011;10371;49.042;8.002;2023-07-20T06:02:44;3.40;;;2.25;;
20423;SDS011;10371;49.042;8.002;2023-07-20T06:03:44;2.35;;;1.80;;
20423;SDS011;10371;49.042;8.002;2023-07-20T06:04:45;2.47;;;2.10;;
20423;SDS011;10371;49.042;8.002;2023-07-20T06:05:45;3.30;;;2.80;;
20423;SDS011;10371;49.042;8.002;2023-07-20T06:06:45;2.47;;;1.90;;
20423;SDS011;10371;49.042;8.002;2023-07-20T06:07:46;2.33;;;2.08;;
20423;SDS011;10371;49.042;8.002;2023-07-20T06:08:46;2.35;;;2.15;;
20423;SDS011;10371;49.042;8.002;2023-07-20T06:09:47;5.88;;;2.50;;
20423;SDS011;10371;49.042;8.002;2023-07-20T06:10:49;2.60;;;2.40;;
20423;SDS011;10371;49.042;8.002;2023-07-20T06:11:51;3.10;;;2.45;;
20423;SDS011;10371;49.042;8.002;2023-07-20T06:12:51;3.10;;;2.47;;
20423;SDS011;10371;49.042;8.002;2023-07-20T06:13:51;2.28;;;2.08;;
20423;SDS011;10371;49.042;8.002;2023-07-20T06:14:52;4.03;;;2.30;;
20423;SDS011;10371;49.042;8.002;2023-07-20T06:15:52;3.28;;;2.20;;
20423;SDS011;10371;49.042;8.002;2023-07-20T06:16:53;3.47;;;2.17;;
20423;SDS011;10371;49.042;8.002;2023-07-20T06:17:53;2.15;;;1.95;;